KEAT/EAT METAR and TAF weather

Enter ICAO airport designator
Station Type Date Time Source
KEAT METAR 2019/07/20 04:55 UTC NOAA

KEAT 200455Z AUTO 26008KT 10SM CLR 19/04 A3002 RMK AO2 SLP160 T01890044


Station Type Date Time Source
KEAT Decoded METAR 2019/07/20 04:55 UTC NOAA

WENATCHEE PANGBORN MEMO, WA, United States (KEAT) 47-24N 120-12W 377M
Jul 20, 2019 - 12:55 AM EDT / 2019.07.20 0455 UTC
Wind: from the W (260 degrees) at 9 MPH (8 KT):0
Visibility: 10 mile(s):0
Sky conditions: clear
Temperature: 66.0 F (18.9 C)
Dew Point: 39.9 F (4.4 C)
Relative Humidity: 38%
Pressure (altimeter): 30.02 in. Hg (1016 hPa)
ob: KEAT 200455Z AUTO 26008KT 10SM CLR 19/04 A3002 RMK AO2 SLP160 T01890044
cycle: 5

Station Type Date Time Source
KEAT TAF 2019/07/19 21:12 UTC NOAA

TAF
AMD KEAT 192110Z 1921/2018 16007KT P6SM SKC
FM200300 32008KT P6SM SKC

Example: see airport list